Time;durP1;ratioP1;P1;durP2;ratioP2;P2;SDS_P1;SDS_P2;PMS_P1;PMS_P2;Temp;Humidity;BMP_temperature;BMP_pressure;BME280_temperature;BME280_humidity;BME280_pressure;Samples;Min_cycle;Max_cycle;Signal;HPM_P1;HPM_P2
2023/08/07 00:01:00;;;;;;;0.35;0.20;;;16.10;79.00;;;;;;6099505;23;20014;-60
2023/08/07 00:03:26;;;;;;;0.10;0.10;;;16.10;79.00;;;;;;6125956;23;20018;-62
2023/08/07 00:05:52;;;;;;;0.10;0.10;;;16.10;79.00;;;;;;6125397;23;20021;-60
2023/08/07 00:08:18;;;;;;;0.10;0.10;;;16.00;78.90;;;;;;6125750;23;20018;-61
2023/08/07 00:10:44;;;;;;;0.17;0.17;;;16.00;78.90;;;;;;6125393;23;20017;-61
2023/08/07 00:13:10;;;;;;;0.20;0.20;;;16.00;79.00;;;;;;6125612;23;20093;-61
2023/08/07 00:15:55;;;;;;;0.20;0.20;;;15.90;79.20;;;;;;6125364;23;20368;-60
2023/08/07 00:18:21;;;;;;;0.10;0.10;;;15.90;79.30;;;;;;6125775;23;20412;-60
2023/08/07 00:20:47;;;;;;;0.17;0.17;;;15.90;79.20;;;;;;6124830;23;20014;-63
2023/08/07 00:23:13;;;;;;;0.10;0.10;;;15.80;78.90;;;;;;6125475;23;20014;-63
2023/08/07 00:25:39;;;;;;;0.10;0.10;;;15.80;78.90;;;;;;6125091;23;20010;-60
2023/08/07 00:28:05;;;;;;;0.40;0.40;;;15.70;78.90;;;;;;6126145;23;20093;-61
2023/08/07 00:30:30;;;;;;;0.10;0.10;;;15.70;79.00;;;;;;6125245;23;20009;-61
2023/08/07 00:32:57;;;;;;;0.10;0.10;;;15.70;79.00;;;;;;6125659;23;20060;-63
2023/08/07 00:35:23;;;;;;;9.00;0.73;;;15.60;78.80;;;;;;6125052;23;20033;-60
2023/08/07 00:37:49;;;;;;;0.10;0.10;;;15.60;78.90;;;;;;6125717;23;20114;-60
2023/08/07 00:40:15;;;;;;;0.10;0.10;;;15.60;78.70;;;;;;6125019;23;20025;-61
2023/08/07 00:42:41;;;;;;;0.10;0.10;;;15.50;78.80;;;;;;6126063;23;20076;-61
2023/08/07 00:45:07;;;;;;;0.10;0.10;;;15.60;78.80;;;;;;6125073;23;20423;-60
2023/08/07 00:47:33;;;;;;;0.10;0.10;;;15.60;78.70;;;;;;6126195;23;20014;-63
2023/08/07 00:50:00;;;;;;;0.10;0.10;;;15.60;78.70;;;;;;6075687;23;20018;-61
2023/08/07 00:52:26;;;;;;;0.10;0.10;;;15.60;78.60;;;;;;6099364;23;20085;-61
2023/08/07 00:54:52;;;;;;;0.90;0.47;;;15.60;78.70;;;;;;6075568;23;20439;-64
2023/08/07 00:57:22;;;;;;;0.10;0.10;;;15.60;78.70;;;;;;6125413;23;20006;-61
2023/08/07 00:59:49;;;;;;;0.30;0.15;;;15.50;78.80;;;;;;6125449;23;20018;-62
2023/08/07 01:02:15;;;;;;;0.10;0.10;;;15.50;78.30;;;;;;6125331;23;20388;-63
2023/08/07 01:04:41;;;;;;;0.10;0.10;;;15.40;78.80;;;;;;6099619;23;20021;-63
2023/08/07 01:07:07;;;;;;;;;;;15.40;78.80;;;;;;6099888;23;20458;-59
2023/08/07 01:09:33;;;;;;;0.10;0.10;;;15.50;78.70;;;;;;6125515;23;19913;-63
2023/08/07 01:12:19;;;;;;;0.10;0.10;;;15.40;78.70;;;;;;6099166;23;20006;-61
2023/08/07 01:15:13;;;;;;;1.08;0.15;;;15.40;78.70;;;;;;6099529;23;20092;-61
2023/08/07 01:17:42;;;;;;;0.10;0.10;;;15.40;78.90;;;;;;6100112;23;20017;-62
2023/08/07 01:20:09;;;;;;;0.10;0.10;;;15.40;78.70;;;;;;6116715;23;20032;-61
2023/08/07 01:22:35;;;;;;;0.10;0.10;;;15.30;78.90;;;;;;6130417;23;20068;-63
2023/08/07 01:25:01;;;;;;;0.10;0.10;;;15.40;79.00;;;;;;6130677;23;20020;-64
2023/08/07 01:28:24;;;;;;;0.10;0.10;;;15.30;78.90;;;;;;6106057;23;20374;-61
2023/08/07 01:30:59;;;;;;;0.25;0.10;;;15.30;78.80;;;;;;6156174;23;20017;-58
2023/08/07 01:33:37;;;;;;;0.05;0.05;;;15.30;78.70;;;;;;6130710;23;20435;-59
2023/08/07 01:36:07;;;;;;;0.10;0.10;;;15.40;78.50;;;;;;6156382;23;20334;-64
2023/08/07 01:38:33;;;;;;;0.38;0.38;;;15.40;78.10;;;;;;6130739;23;20408;-64
2023/08/07 01:41:02;;;;;;;0.10;0.10;;;15.40;78.00;;;;;;6130114;23;20024;-64
2023/08/07 01:43:28;;;;;;;0.20;0.20;;;15.40;78.20;;;;;;6130563;23;20024;-63
2023/08/07 01:45:54;;;;;;;0.10;0.10;;;15.40;78.20;;;;;;6130094;23;20014;-62
2023/08/07 01:48:20;;;;;;;0.30;0.30;;;15.50;78.30;;;;;;6130728;23;20037;-61
2023/08/07 01:50:46;;;;;;;0.10;0.10;;;15.50;78.30;;;;;;6156213;23;20431;-61
2023/08/07 01:53:12;;;;;;;0.10;0.10;;;15.50;78.20;;;;;;6154774;23;20096;-61
2023/08/07 01:55:38;;;;;;;0.10;0.10;;;15.50;78.20;;;;;;6156088;23;20013;-61
2023/08/07 01:58:04;;;;;;;;;;;15.50;78.40;;;;;;6157099;23;20017;-58
2023/08/07 02:00:31;;;;;;;0.15;0.15;;;15.50;78.40;;;;;;6155891;23;20341;-61
2023/08/07 02:02:57;;;;;;;0.10;0.10;;;15.60;78.10;;;;;;6130718;23;20024;-64
2023/08/07 02:05:23;;;;;;;0.10;0.10;;;15.50;78.20;;;;;;6155731;23;20009;-61
2023/08/07 02:07:49;;;;;;;0.10;0.10;;;15.50;78.30;;;;;;6130567;23;20084;-63
2023/08/07 02:10:16;;;;;;;0.55;0.50;;;15.50;78.30;;;;;;6129874;23;20024;-58
2023/08/07 02:12:41;;;;;;;0.80;0.47;;;15.50;79.20;;;;;;6157031;23;20085;-61
2023/08/07 02:15:08;;;;;;;0.20;0.20;;;15.60;78.40;;;;;;6155968;23;20024;-62
2023/08/07 02:17:35;;;;;;;0.10;0.10;;;15.50;77.70;;;;;;6157015;23;20382;-58
2023/08/07 02:20:01;;;;;;;0.20;0.20;;;15.50;78.20;;;;;;6139358;23;20093;-59
2023/08/07 02:22:27;;;;;;;0.20;0.20;;;15.60;78.40;;;;;;6100584;23;20018;-61
2023/08/07 02:24:53;;;;;;;0.20;0.20;;;15.60;78.20;;;;;;6100727;23;20044;-59
2023/08/07 02:27:19;;;;;;;0.00;0.00;;;15.60;78.20;;;;;;6100797;23;20057;-60
2023/08/07 02:29:45;;;;;;;0.28;0.20;;;15.70;78.30;;;;;;6126886;23;20018;-62
2023/08/07 02:32:11;;;;;;;0.10;0.10;;;15.60;78.30;;;;;;6126735;23;20010;-61
2023/08/07 02:34:37;;;;;;;0.10;0.10;;;15.60;78.20;;;;;;6100670;23;20335;-61
2023/08/07 02:37:04;;;;;;;0.45;0.30;;;15.60;78.20;;;;;;6126035;23;20068;-60
2023/08/07 02:39:29;;;;;;;;;;;15.70;78.20;;;;;;6127293;23;20392;-59
2023/08/07 02:41:55;;;;;;;0.10;0.10;;;15.70;78.20;;;;;;6126525;23;19912;-59
2023/08/07 02:44:21;;;;;;;0.20;0.20;;;15.70;78.10;;;;;;6126602;23;20069;-59
2023/08/07 02:46:48;;;;;;;0.20;0.20;;;15.70;78.10;;;;;;6100306;23;20018;-59
2023/08/07 02:49:13;;;;;;;;;;;15.70;78.00;;;;;;6101369;23;20024;-59
2023/08/07 02:51:39;;;;;;;0.10;0.10;;;15.70;78.10;;;;;;6126383;23;19913;-59
2023/08/07 02:54:05;;;;;;;0.45;0.45;;;15.70;78.10;;;;;;6126403;23;20014;-62
2023/08/07 02:56:32;;;;;;;0.10;0.10;;;15.60;78.10;;;;;;6126462;23;20010;-62
2023/08/07 02:58:59;;;;;;;0.10;0.10;;;15.60;78.20;;;;;;6100707;23;20010;-59
2023/08/07 03:01:27;;;;;;;0.10;0.10;;;15.60;78.20;;;;;;6126274;23;20018;-62
2023/08/07 03:03:53;;;;;;;0.10;0.10;;;15.60;78.30;;;;;;6101044;23;20491;-62
2023/08/07 03:06:19;;;;;;;0.10;0.10;;;15.60;78.50;;;;;;6125923;23;20347;-61
2023/08/07 03:08:45;;;;;;;0.15;0.15;;;15.70;78.70;;;;;;6100528;23;20037;-60
2023/08/07 03:11:11;;;;;;;0.10;0.10;;;15.60;78.60;;;;;;6126167;23;20226;-62
2023/08/07 03:13:37;;;;;;;0.10;0.10;;;15.60;78.80;;;;;;6126345;23;20541;-59
2023/08/07 03:16:06;;;;;;;0.10;0.10;;;15.60;78.90;;;;;;6125956;23;20021;-61
2023/08/07 03:18:32;;;;;;;0.10;0.10;;;15.60;78.60;;;;;;6126374;23;20012;-62
2023/08/07 03:20:59;;;;;;;2.30;0.20;;;15.60;78.10;;;;;;6125580;23;20487;-60
2023/08/07 03:23:27;;;;;;;0.10;0.10;;;15.60;78.10;;;;;;6100074;23;20343;-59
2023/08/07 03:26:12;;;;;;;0.20;0.20;;;15.60;78.60;;;;;;6099796;23;20013;-59
2023/08/07 03:28:39;;;;;;;0.10;0.10;;;15.70;78.60;;;;;;6100391;23;20072;-59
2023/08/07 03:31:05;;;;;;;0.40;0.40;;;15.70;78.50;;;;;;6125788;23;20427;-63
2023/08/07 03:33:31;;;;;;;0.75;0.20;;;15.70;78.70;;;;;;6100226;23;20018;-60
2023/08/07 03:35:58;;;;;;;;;;;15.70;78.20;;;;;;6126038;23;20025;-59
2023/08/07 03:38:25;;;;;;;0.55;0.30;;;15.70;78.60;;;;;;6126198;23;19917;-60
2023/08/07 03:40:51;;;;;;;0.10;0.10;;;15.70;78.60;;;;;;6125541;23;20025;-62
2023/08/07 03:43:17;;;;;;;0.10;0.10;;;15.70;78.70;;;;;;6125849;23;20427;-62
2023/08/07 03:45:43;;;;;;;0.10;0.10;;;15.70;78.90;;;;;;6125245;23;20026;-59
2023/08/07 03:48:09;;;;;;;0.10;0.10;;;15.60;79.00;;;;;;6126019;23;20021;-61
2023/08/07 03:50:37;;;;;;;0.05;0.05;;;15.60;79.30;;;;;;6125606;23;20014;-62
2023/08/07 03:53:06;;;;;;;0.17;0.17;;;15.60;79.50;;;;;;6100256;23;20018;-61
2023/08/07 03:55:32;;;;;;;0.17;0.17;;;15.50;79.60;;;;;;6100172;23;20340;-58
2023/08/07 03:57:58;;;;;;;;;;;15.50;79.80;;;;;;6126648;23;20065;-60
2023/08/07 04:00:24;;;;;;;0.10;0.10;;;15.50;79.70;;;;;;6148243;23;19917;-62
2023/08/07 04:02:50;;;;;;;0.10;0.10;;;15.50;79.80;;;;;;6125834;23;20014;-59
2023/08/07 04:05:16;;;;;;;0.10;0.10;;;15.40;79.80;;;;;;6099552;23;20089;-59
2023/08/07 04:07:42;;;;;;;0.10;0.10;;;15.40;79.80;;;;;;6126588;23;20006;-59
2023/08/07 04:10:09;;;;;;;0.10;0.10;;;15.50;79.80;;;;;;6125259;23;20048;-62
2023/08/07 04:12:35;;;;;;;0.10;0.10;;;15.50;79.60;;;;;;6126344;23;20013;-59
2023/08/07 04:15:01;;;;;;;0.20;0.20;;;15.50;80.00;;;;;;6100157;23;20018;-59
2023/08/07 04:17:27;;;;;;;0.10;0.10;;;15.50;80.00;;;;;;6099768;23;20010;-59
2023/08/07 04:19:53;;;;;;;0.10;0.10;;;15.50;80.90;;;;;;6125472;23;20022;-62
2023/08/07 04:22:19;;;;;;;0.10;0.10;;;15.50;80.10;;;;;;6125494;23;20340;-62
2023/08/07 04:24:46;;;;;;;0.30;0.30;;;15.40;80.00;;;;;;6125770;23;20014;-59
2023/08/07 04:27:12;;;;;;;0.10;0.10;;;15.50;80.00;;;;;;6099287;23;20046;-59
2023/08/07 04:29:38;;;;;;;0.10;0.10;;;15.40;80.00;;;;;;6125580;23;20087;-62
2023/08/07 04:32:04;;;;;;;0.90;0.20;;;15.40;80.20;;;;;;6099550;23;20364;-62
2023/08/07 04:34:30;;;;;;;0.10;0.10;;;15.30;80.30;;;;;;6125332;23;20014;-59
2023/08/07 04:36:56;;;;;;;0.30;0.25;;;15.30;80.80;;;;;;6125444;23;20065;-59
2023/08/07 04:39:22;;;;;;;0.22;0.22;;;15.30;80.90;;;;;;6099647;23;20042;-59
2023/08/07 04:41:52;;;;;;;0.10;0.10;;;15.20;81.10;;;;;;6125564;23;20319;-60
2023/08/07 04:44:18;;;;;;;0.10;0.10;;;15.20;81.20;;;;;;6125460;23;20014;-62
2023/08/07 04:46:44;;;;;;;0.20;0.20;;;15.30;81.20;;;;;;6125421;23;20309;-62
2023/08/07 04:49:10;;;;;;;0.15;0.15;;;15.30;81.20;;;;;;6125426;23;20024;-60
2023/08/07 04:51:36;;;;;;;;;;;15.20;80.50;;;;;;6099819;23;20080;-62
2023/08/07 04:54:02;;;;;;;3.22;0.70;;;15.20;80.80;;;;;;6099498;23;19932;-59
2023/08/07 04:56:28;;;;;;;0.30;0.30;;;15.30;80.90;;;;;;6125245;23;20052;-62
2023/08/07 04:58:54;;;;;;;1.45;0.40;;;15.30;80.80;;;;;;6125383;23;20018;-62
2023/08/07 05:01:20;;;;;;;0.20;0.20;;;15.40;80.40;;;;;;6125187;23;20014;-59
2023/08/07 05:03:46;;;;;;;0.30;0.30;;;15.50;80.40;;;;;;6125450;23;20089;-59
2023/08/07 05:06:12;;;;;;;0.32;0.25;;;15.60;80.30;;;;;;6124922;23;20494;-59
2023/08/07 05:08:39;;;;;;;0.10;0.10;;;15.60;80.10;;;;;;6099723;23;20065;-59
2023/08/07 05:11:04;;;;;;;0.40;0.20;;;15.70;80.10;;;;;;6099105;23;20060;-59
2023/08/07 05:13:30;;;;;;;0.10;0.10;;;15.70;80.00;;;;;;6125584;23;20018;-59
2023/08/07 05:15:56;;;;;;;2.30;1.65;;;15.80;79.80;;;;;;6099102;23;20033;-59
2023/08/07 05:18:22;;;;;;;0.55;0.50;;;15.90;80.00;;;;;;6099644;23;20025;-59
2023/08/07 05:20:48;;;;;;;0.32;0.20;;;16.00;79.70;;;;;;6124810;23;20064;-59
2023/08/07 05:23:14;;;;;;;0.10;0.10;;;16.00;79.60;;;;;;6128458;23;20013;-59
2023/08/07 05:25:41;;;;;;;0.10;0.10;;;16.20;79.50;;;;;;6154355;23;20394;-62
2023/08/07 05:28:07;;;;;;;0.10;0.10;;;16.20;79.30;;;;;;6154983;23;20061;-59
2023/08/07 05:30:33;;;;;;;0.10;0.10;;;16.20;78.60;;;;;;6154292;23;20065;-61
2023/08/07 05:32:59;;;;;;;0.10;0.10;;;16.30;79.10;;;;;;6128930;23;20346;-62
2023/08/07 05:35:25;;;;;;;0.15;0.15;;;16.40;78.90;;;;;;6127806;23;20390;-59
2023/08/07 05:37:51;;;;;;;;;;;16.40;78.70;;;;;;6155529;23;20347;-59
2023/08/07 05:40:17;;;;;;;0.98;0.70;;;16.50;79.70;;;;;;6154251;23;20010;-61
2023/08/07 05:42:44;;;;;;;0.20;0.10;;;16.60;78.20;;;;;;6154687;23;20402;-60
2023/08/07 05:45:10;;;;;;;0.35;0.28;;;16.70;78.10;;;;;;6154104;23;20560;-61
2023/08/07 05:47:36;;;;;;;0.20;0.20;;;16.70;77.50;;;;;;6128990;23;20048;-62
2023/08/07 05:50:03;;;;;;;0.10;0.10;;;16.80;78.00;;;;;;6128563;23;20033;-61
2023/08/07 05:52:29;;;;;;;0.10;0.10;;;16.90;77.10;;;;;;6128598;23;20014;-61
2023/08/07 05:54:55;;;;;;;0.10;0.10;;;17.10;77.50;;;;;;6154896;23;20320;-61
2023/08/07 05:57:21;;;;;;;0.55;0.32;;;17.20;77.30;;;;;;6154721;23;20013;-62
2023/08/07 05:59:47;;;;;;;0.10;0.10;;;17.20;77.10;;;;;;6154587;23;20316;-60
2023/08/07 06:02:13;;;;;;;0.28;0.20;;;17.20;78.00;;;;;;6128347;23;20036;-59
2023/08/07 06:04:39;;;;;;;;;;;17.30;77.10;;;;;;6155329;23;20088;-62
2023/08/07 06:07:05;;;;;;;0.10;0.10;;;17.30;77.40;;;;;;6129065;23;20361;-59
2023/08/07 06:09:32;;;;;;;0.38;0.20;;;17.30;76.80;;;;;;6130407;23;20040;-59
2023/08/07 06:11:57;;;;;;;;;;;17.30;77.10;;;;;;6156837;23;20024;-62
2023/08/07 06:14:25;;;;;;;0.20;0.20;;;17.20;77.60;;;;;;6156397;23;19916;-61
2023/08/07 06:16:52;;;;;;;0.10;0.10;;;17.20;77.50;;;;;;6130172;23;20316;-62
2023/08/07 06:19:19;;;;;;;0.20;0.20;;;17.20;77.60;;;;;;6130142;23;20021;-59
2023/08/07 06:21:46;;;;;;;0.20;0.20;;;17.10;77.40;;;;;;6130173;23;20017;-62
2023/08/07 06:24:12;;;;;;;;;;;17.10;78.00;;;;;;6130600;23;20048;-59
2023/08/07 06:26:38;;;;;;;0.10;0.10;;;17.20;77.80;;;;;;6130155;23;19917;-59
2023/08/07 06:29:04;;;;;;;0.17;0.10;;;17.30;77.30;;;;;;6130161;23;20383;-59
2023/08/07 06:31:30;;;;;;;0.10;0.10;;;17.20;77.40;;;;;;6156125;23;20017;-58
2023/08/07 06:33:56;;;;;;;0.30;0.30;;;17.30;77.20;;;;;;6156055;23;20056;-61
2023/08/07 06:36:22;;;;;;;0.20;0.20;;;17.40;77.30;;;;;;6155997;23;20014;-59
2023/08/07 06:38:48;;;;;;;0.10;0.10;;;17.40;76.80;;;;;;6156472;23;20013;-59
2023/08/07 06:41:14;;;;;;;0.30;0.30;;;17.50;76.90;;;;;;6155980;23;20017;-60
2023/08/07 06:43:40;;;;;;;0.10;0.10;;;17.60;76.40;;;;;;6156138;23;20016;-62
2023/08/07 06:46:06;;;;;;;0.10;0.10;;;17.80;76.20;;;;;;6104969;23;20022;-59
2023/08/07 06:48:32;;;;;;;0.40;0.30;;;17.80;75.60;;;;;;6156238;23;20383;-62
2023/08/07 06:50:58;;;;;;;0.75;0.55;;;17.90;75.30;;;;;;6129274;23;20096;-59
2023/08/07 06:53:25;;;;;;;0.10;0.10;;;18.00;75.00;;;;;;6155845;23;20462;-61
2023/08/07 06:55:51;;;;;;;0.10;0.10;;;18.20;74.70;;;;;;6129603;23;20464;-59
2023/08/07 06:58:17;;;;;;;0.10;0.10;;;18.40;74.10;;;;;;6130160;23;20444;-59
2023/08/07 07:00:43;;;;;;;0.10;0.10;;;18.60;73.60;;;;;;6155361;23;20029;-58
2023/08/07 07:03:09;;;;;;;1.75;1.08;;;18.80;73.50;;;;;;6129790;23;20010;-62
2023/08/07 07:05:36;;;;;;;0.10;0.10;;;19.00;73.30;;;;;;6155756;23;20089;-59
2023/08/07 07:08:02;;;;;;;0.28;0.20;;;19.20;72.50;;;;;;6130080;23;20010;-59
2023/08/07 07:10:29;;;;;;;0.10;0.10;;;19.50;72.80;;;;;;6155414;23;20072;-62
2023/08/07 07:12:55;;;;;;;0.22;0.20;;;19.70;71.90;;;;;;6155864;23;20375;-59
2023/08/07 07:15:21;;;;;;;0.20;0.20;;;19.80;70.40;;;;;;6129334;23;20013;-59
2023/08/07 07:17:47;;;;;;;;;;;20.10;70.20;;;;;;6157059;23;20359;-59
2023/08/07 07:20:13;;;;;;;0.10;0.10;;;20.40;71.30;;;;;;6136083;23;19952;-62
2023/08/07 07:22:39;;;;;;;;;;;20.60;68.40;;;;;;6101029;23;20017;-62
2023/08/07 07:25:06;;;;;;;0.10;0.10;;;20.90;69.70;;;;;;6100150;23;19913;-60
2023/08/07 07:27:32;;;;;;;0.10;0.10;;;21.10;66.60;;;;;;6100597;23;20375;-62
2023/08/07 07:29:57;;;;;;;;;;;21.40;66.60;;;;;;6101045;23;20072;-59
2023/08/07 07:32:25;;;;;;;0.25;0.20;;;21.50;66.90;;;;;;6126015;23;19940;-59
2023/08/07 07:34:52;;;;;;;0.10;0.10;;;21.50;65.60;;;;;;6125929;23;20014;-62
2023/08/07 07:37:17;;;;;;;;;;;21.50;65.90;;;;;;6100677;23;20339;-59
2023/08/07 07:39:44;;;;;;;0.20;0.20;;;21.50;66.50;;;;;;6126048;23;19991;-62
2023/08/07 07:42:10;;;;;;;0.20;0.20;;;21.60;63.90;;;;;;6126027;23;20435;-59
2023/08/07 07:44:36;;;;;;;;;;;21.50;65.00;;;;;;6127257;23;20094;-61
2023/08/07 07:47:02;;;;;;;0.30;0.30;;;21.60;65.50;;;;;;6100024;23;19940;-62
2023/08/07 07:49:28;;;;;;;0.10;0.10;;;21.60;65.10;;;;;;6125937;23;20341;-62
2023/08/07 07:51:54;;;;;;;;;;;21.70;65.30;;;;;;6100360;23;20069;-61
2023/08/07 07:54:20;;;;;;;0.20;0.20;;;21.90;65.40;;;;;;6125824;23;19913;-60
2023/08/07 07:56:46;;;;;;;;;;;22.00;63.50;;;;;;6100513;23;20320;-62
2023/08/07 07:59:13;;;;;;;0.10;0.10;;;22.30;63.30;;;;;;6125846;23;19987;-59
2023/08/07 08:01:39;;;;;;;0.10;0.10;;;22.50;62.50;;;;;;6125829;23;20025;-60
2023/08/07 08:04:06;;;;;;;0.10;0.10;;;22.90;62.20;;;;;;6125654;23;20347;-62
2023/08/07 08:06:32;;;;;;;0.10;0.10;;;23.10;59.70;;;;;;6099703;23;20010;-62
2023/08/07 08:08:59;;;;;;;0.20;0.20;;;23.60;57.50;;;;;;6099985;23;20014;-63
2023/08/07 08:11:25;;;;;;;0.17;0.17;;;24.00;56.90;;;;;;6125623;23;20423;-61
2023/08/07 08:13:51;;;;;;;0.10;0.10;;;24.50;56.80;;;;;;6125672;23;20021;-59
2023/08/07 08:16:17;;;;;;;;;;;24.90;56.20;;;;;;6126255;23;20014;-63
2023/08/07 08:18:43;;;;;;;0.10;0.10;;;25.50;56.80;;;;;;6125748;23;19948;-65
2023/08/07 08:21:09;;;;;;;0.75;0.22;;;26.10;52.80;;;;;;6125084;23;20411;-66
2023/08/07 08:23:35;;;;;;;0.70;0.30;;;26.60;51.20;;;;;;6125412;23;20017;-63
2023/08/07 08:26:02;;;;;;;0.20;0.20;;;27.10;50.00;;;;;;6125298;23;20018;-61
2023/08/07 08:28:28;;;;;;;0.30;0.30;;;27.80;49.20;;;;;;6099846;23;20018;-61
2023/08/07 08:30:54;;;;;;;0.25;0.25;;;28.30;42.90;;;;;;6124998;23;20025;-61
2023/08/07 08:33:20;;;;;;;0.20;0.20;;;29.00;45.50;;;;;;6125477;23;20013;-64
2023/08/07 08:35:46;;;;;;;0.20;0.20;;;29.80;44.30;;;;;;6125216;23;20042;-65
2023/08/07 08:38:12;;;;;;;0.30;0.30;;;30.50;42.10;;;;;;6125787;23;20065;-62
2023/08/07 08:40:40;;;;;;;0.20;0.20;;;31.10;39.70;;;;;;6098063;23;20014;-61
2023/08/07 08:43:06;;;;;;;0.40;0.40;;;31.80;38.10;;;;;;6098760;23;20340;-61
2023/08/07 08:45:33;;;;;;;0.25;0.25;;;32.50;36.00;;;;;;6124787;23;20010;-64
2023/08/07 08:48:21;;;;;;;0.40;0.40;;;33.00;33.40;;;;;;6099744;23;20017;-61
2023/08/07 08:50:50;;;;;;;0.20;0.20;;;33.50;32.40;;;;;;6075338;23;20319;-61
2023/08/07 08:53:16;;;;;;;0.30;0.30;;;34.00;32.00;;;;;;6099511;23;20516;-65
2023/08/07 08:55:46;;;;;;;0.30;0.30;;;34.80;31.40;;;;;;6125111;23;20044;-61
2023/08/07 08:58:15;;;;;;;0.30;0.30;;;35.50;28.20;;;;;;6100275;23;20456;-61
2023/08/07 09:00:42;;;;;;;18.05;1.20;;;36.10;28.60;;;;;;6098720;23;20085;-61
2023/08/07 09:03:08;;;;;;;0.40;0.40;;;36.70;27.50;;;;;;6099757;23;20017;-65
2023/08/07 09:05:37;;;;;;;0.50;0.50;;;37.10;25.90;;;;;;6099120;23;20006;-62
2023/08/07 09:08:03;;;;;;;0.40;0.40;;;37.40;24.20;;;;;;6099751;23;20014;-61
2023/08/07 09:10:31;;;;;;;0.30;0.30;;;38.00;24.20;;;;;;6124861;23;20065;-62
2023/08/07 09:13:06;;;;;;;0.60;0.60;;;38.30;23.10;;;;;;6125395;23;20021;-66
2023/08/07 09:15:33;;;;;;;0.25;0.25;;;38.70;22.80;;;;;;6099825;23;20006;-61
2023/08/07 09:17:59;;;;;;;0.65;0.65;;;39.10;22.00;;;;;;6125488;23;20021;-66
2023/08/07 09:20:26;;;;;;;0.47;0.47;;;39.60;21.00;;;;;;6124864;23;20100;-65
2023/08/07 09:22:52;;;;;;;0.40;0.40;;;39.90;20.40;;;;;;6125160;23;20093;-62
2023/08/07 09:25:36;;;;;;;0.98;0.98;;;40.50;21.30;;;;;;6124762;23;20014;-65
2023/08/07 09:28:05;;;;;;;0.50;0.50;;;41.00;20.10;;;;;;6125501;23;20073;-65
2023/08/07 09:30:34;;;;;;;0.50;0.50;;;41.30;18.80;;;;;;6098857;23;20061;-65
2023/08/07 09:33:01;;;;;;;0.50;0.50;;;41.60;18.20;;;;;;6099461;23;20022;-61
2023/08/07 09:35:34;;;;;;;0.60;0.60;;;42.00;17.50;;;;;;6098853;23;20085;-65
2023/08/07 09:38:01;;;;;;;0.43;0.43;;;42.30;17.20;;;;;;6100415;23;20057;-60
2023/08/07 09:40:27;;;;;;;0.50;0.50;;;42.60;16.50;;;;;;6124515;23;20069;-65
2023/08/07 09:42:54;;;;;;;0.40;0.40;;;42.80;16.70;;;;;;6126456;23;20022;-62
2023/08/07 09:45:28;;;;;;;0.68;0.68;;;43.30;15.60;;;;;;6100989;23;20093;-61
2023/08/07 09:48:13;;;;;;;0.60;0.60;;;43.60;15.80;;;;;;6127395;23;20022;-66
2023/08/07 09:50:39;;;;;;;0.60;0.60;;;43.90;14.30;;;;;;6100914;23;20017;-60
2023/08/07 09:53:05;;;;;;;0.50;0.50;;;44.10;15.00;;;;;;6126967;23;20018;-65
2023/08/07 09:55:32;;;;;;;0.60;0.60;;;44.70;14.20;;;;;;6126963;23;20014;-61
2023/08/07 09:58:00;;;;;;;0.70;0.70;;;45.10;13.60;;;;;;6127629;23;20037;-61
2023/08/07 10:00:26;;;;;;;0.82;0.82;;;45.40;13.70;;;;;;6100479;23;20033;-66
2023/08/07 10:02:54;;;;;;;0.80;0.80;;;45.70;13.60;;;;;;6127024;23;20375;-61
2023/08/07 10:05:20;;;;;;;0.70;0.70;;;46.10;13.50;;;;;;6126441;23;20010;-66
2023/08/07 10:07:47;;;;;;;0.80;0.80;;;45.80;13.60;;;;;;6127695;23;20010;-62
2023/08/07 10:10:13;;;;;;;0.88;0.88;;;46.00;12.00;;;;;;6100490;23;20022;-66
2023/08/07 10:12:40;;;;;;;0.82;0.82;;;46.40;13.00;;;;;;6101142;23;20042;-61
2023/08/07 10:15:07;;;;;;;0.80;0.80;;;46.70;12.30;;;;;;6100944;23;20014;-62
2023/08/07 10:17:33;;;;;;;0.90;0.90;;;47.20;12.60;;;;;;6101300;23;20089;-61
2023/08/07 10:20:00;;;;;;;0.85;0.85;;;47.80;11.70;;;;;;6127014;23;20021;-66
2023/08/07 10:22:30;;;;;;;0.90;0.90;;;48.10;12.30;;;;;;6126542;23;20431;-66
2023/08/07 10:25:00;;;;;;;0.90;0.90;;;48.40;11.30;;;;;;6101213;23;20439;-61
2023/08/07 10:27:27;;;;;;;1.40;1.30;;;48.40;12.10;;;;;;6100762;23;20016;-65
2023/08/07 10:29:55;;;;;;;0.90;0.90;;;47.60;11.10;;;;;;6100561;23;20014;-61
2023/08/07 10:32:23;;;;;;;0.90;0.90;;;46.80;12.20;;;;;;6100047;23;20105;-65
2023/08/07 10:35:08;;;;;;;0.80;0.80;;;45.90;12.70;;;;;;6126470;23;20075;-65
2023/08/07 10:37:55;;;;;;;0.82;0.82;;;44.60;13.40;;;;;;6127351;23;20016;-61
2023/08/07 10:40:22;;;;;;;0.82;0.82;;;43.40;14.40;;;;;;6126277;23;20014;-60
2023/08/07 10:43:06;;;;;;;1.13;1.02;;;42.80;15.30;;;;;;6126817;23;20069;-61
2023/08/07 10:45:35;;;;;;;0.60;0.60;;;42.10;16.30;;;;;;6100129;23;20037;-61
2023/08/07 10:48:20;;;;;;;0.77;0.75;;;43.60;15.30;;;;;;6126665;23;20022;-65
2023/08/07 10:51:08;;;;;;;0.60;0.60;;;45.40;13.80;;;;;;6099960;23;20018;-61
2023/08/07 10:53:44;;;;;;;0.70;0.70;;;46.70;12.10;;;;;;6100439;23;20077;-61
2023/08/07 10:56:29;;;;;;;0.88;0.88;;;47.10;12.00;;;;;;6100407;23;20040;-65
2023/08/07 10:58:55;;;;;;;0.98;0.95;;;47.70;11.10;;;;;;6100562;23;20466;-60
2023/08/07 11:01:21;;;;;;;0.98;0.93;;;48.20;11.30;;;;;;6126279;23;20006;-61
2023/08/07 11:03:53;;;;;;;0.88;0.88;;;48.90;10.90;;;;;;6126559;23;20014;-61
2023/08/07 11:06:27;;;;;;;1.00;1.00;;;49.40;11.10;;;;;;6100257;23;20014;-60
2023/08/07 11:08:53;;;;;;;0.88;0.88;;;49.80;10.30;;;;;;6126327;23;20366;-66
2023/08/07 11:11:20;;;;;;;1.10;1.00;;;50.40;9.60;;;;;;6100049;23;20010;-65
2023/08/07 11:13:46;;;;;;;1.40;1.30;;;51.00;10.10;;;;;;6126286;23;20018;-65
2023/08/07 11:16:12;;;;;;;1.38;1.27;;;51.50;9.20;;;;;;6125923;23;20014;-60
2023/08/07 11:18:42;;;;;;;1.27;1.17;;;51.90;8.40;;;;;;6076344;23;20109;-66
2023/08/07 11:21:10;;;;;;;1.40;1.30;;;52.40;8.70;;;;;;6155417;23;20029;-61
2023/08/07 11:23:38;;;;;;;1.48;1.38;;;52.40;8.50;;;;;;6129808;23;20014;-61
2023/08/07 11:26:04;;;;;;;1.60;1.50;;;52.80;8.30;;;;;;6129130;23;20072;-66
2023/08/07 11:28:30;;;;;;;1.63;1.52;;;52.60;7.90;;;;;;6156165;23;20093;-61
2023/08/07 11:30:57;;;;;;;1.55;1.45;;;52.10;8.40;;;;;;6128958;23;20045;-66
2023/08/07 11:33:42;;;;;;;1.77;1.67;;;52.10;7.80;;;;;;6129675;23;20347;-66
2023/08/07 11:36:26;;;;;;;1.70;1.60;;;51.80;8.10;;;;;;6129239;23;20036;-61
2023/08/07 11:38:52;;;;;;;;;;;51.80;7.90;;;;;;6130559;23;20020;-65
2023/08/07 11:41:19;;;;;;;2.00;1.80;;;52.20;7.70;;;;;;6155360;23;20241;-64
2023/08/07 11:43:46;;;;;;;1.80;1.70;;;53.20;6.80;;;;;;6155700;23;20010;-61
2023/08/07 11:46:14;;;;;;;2.00;1.80;;;54.00;7.90;;;;;;6155113;23;20013;-61
2023/08/07 11:48:43;;;;;;;2.10;1.90;;;54.80;7.20;;;;;;6155552;23;20343;-66
2023/08/07 11:51:09;;;;;;;2.40;2.20;;;55.10;8.30;;;;;;6155069;23;20060;-61
2023/08/07 11:53:37;;;;;;;2.10;1.90;;;54.30;7.70;;;;;;6129274;23;20036;-66
2023/08/07 11:56:24;;;;;;;1.98;1.80;;;52.70;8.90;;;;;;6128870;23;20020;-66
2023/08/07 11:58:53;;;;;;;1.58;1.48;;;51.00;9.60;;;;;;6155338;23;20063;-61
2023/08/07 12:01:40;;;;;;;1.58;1.48;;;49.60;9.90;;;;;;6104612;23;20013;-60
2023/08/07 12:04:07;;;;;;;1.35;1.25;;;47.90;10.80;;;;;;6154873;23;20017;-61
2023/08/07 12:06:35;;;;;;;1.40;1.30;;;46.70;11.50;;;;;;6155181;23;20013;-60
2023/08/07 12:09:02;;;;;;;1.02;0.98;;;45.80;12.60;;;;;;6155230;23;20010;-61
2023/08/07 12:11:47;;;;;;;0.80;0.80;;;45.30;12.80;;;;;;6155009;23;20076;-61
2023/08/07 12:14:32;;;;;;;0.85;0.85;;;44.10;13.50;;;;;;6155138;23;20013;-61
2023/08/07 12:17:00;;;;;;;0.85;0.85;;;42.80;14.00;;;;;;6155244;23;20029;-60
2023/08/07 12:19:56;;;;;;;1.75;1.38;;;41.50;14.70;;;;;;6128989;23;20466;-64
2023/08/07 12:22:22;;;;;;;;;;;40.60;16.60;;;;;;6155538;23;20010;-64
2023/08/07 12:24:48;;;;;;;0.50;0.50;;;39.60;17.10;;;;;;6155011;23;19991;-60
2023/08/07 12:27:14;;;;;;;0.70;0.70;;;38.70;18.30;;;;;;6128645;23;20448;-65
2023/08/07 12:29:40;;;;;;;0.50;0.50;;;37.80;19.60;;;;;;6153592;23;20009;-60
2023/08/07 12:32:06;;;;;;;0.45;0.45;;;37.00;21.40;;;;;;6154250;23;20387;-60
2023/08/07 12:34:32;;;;;;;0.40;0.40;;;36.20;22.20;;;;;;6154728;23;20010;-60
2023/08/07 12:36:58;;;;;;;0.35;0.35;;;35.70;23.10;;;;;;6155014;23;20021;-64
2023/08/07 12:39:24;;;;;;;0.30;0.30;;;35.10;24.00;;;;;;6155109;23;20021;-64
2023/08/07 12:41:50;;;;;;;0.22;0.22;;;34.50;24.70;;;;;;6154944;23;20048;-60
2023/08/07 12:44:17;;;;;;;0.43;0.43;;;34.00;25.80;;;;;;6128944;23;20013;-60
2023/08/07 12:46:43;;;;;;;0.45;0.40;;;33.50;26.10;;;;;;6154868;23;20009;-60
2023/08/07 12:49:09;;;;;;;1.08;0.43;;;33.20;27.00;;;;;;6154913;23;20324;-60
2023/08/07 12:51:35;;;;;;;0.30;0.30;;;32.80;28.10;;;;;;6154329;23;20017;-64
2023/08/07 12:54:01;;;;;;;1.00;0.40;;;32.40;29.00;;;;;;6154814;23;20021;-61
2023/08/07 12:56:27;;;;;;;0.40;0.40;;;32.00;30.30;;;;;;6154845;23;20039;-60